Track Фролов Александр

Time Latitude Longitude Accuracy (66% radius in meters) Altitude (meters) Speed (km/hour) Bearing (degrees) Battery (%) GPS flag
09:32:58 55.944020 38.068149 2.5 173 0 0 66 1 delete
09:32:46 55.944020 38.068149 2 173 0 0 66 1 delete
09:32:37 55.944023 38.068150 2 172.89999389648 0.089999996125698 85.89111328125 66 1 delete
09:32:25 55.944052 38.068148 3 175.80000305176 0.17000000178814 91.016235351562 66 1 delete
09:32:16 55.944058 38.068132 2 176.89999389648 0.45999997854233 53.223266601562 66 1 delete
09:32:07 55.944070 38.068087 2 178.30000305176 0.41999998688698 76.437377929688 66 1 delete
09:32:04 55.944066 38.068066 2 178.5 0 0 66 1 delete
09:31:55 55.944036 38.068002 2.5 177.89999389648 0.91999995708466 73.526000976562 66 1 delete
09:31:49 55.944007 38.067914 3 176.30000305176 1.9499999284744 69.724731445312 66 1 delete
09:31:46 55.943991 38.067816 2.5 176.5 2.5899999141693 64.8193359375 66 1 delete
09:31:43 55.943966 38.067718 2.5 176.30000305176 2.0099999904633 60.853271484375 66 1 delete
09:31:34 55.943911 38.067617 2.5 175.80000305176 0.28999999165535 175.62194824219 66 1 delete
09:31:31 55.943902 38.067507 3 177.19999694824 3.3299999237061 61.85302734375 66 1 delete
09:31:28 55.943771 38.067361 3 177 4.3600001335144 23.329467773438 66 1 delete
09:31:25 55.943637 38.067284 2.5 178.30000305176 4.6599998474121 352.60070800781 66 1 delete
09:31:22 55.943535 38.067202 3 178.69999694824 4.4800000190735 50.421752929688 66 1 delete
09:31:19 55.943475 38.067031 3 178.60000610352 3.0699999332428 62.786865234375 66 1 delete
09:31:16 55.943447 38.066943 2.5 179.10000610352 1.5099999904633 53.19580078125 66 1 delete
09:31:13 55.943407 38.066868 2.5 177.89999389648 2.2599999904633 47.993774414062 66 1 delete
09:31:10 55.943337 38.066772 2.5 176.60000610352 2.4700000286102 351.07360839844 66 1 delete
09:31:07 55.943236 38.066838 2 177.10000610352 4.5299997329712 338.28002929688 66 1 delete
09:31:04 55.943123 38.066933 2.5 178.39999389648 4.6100001335144 342.7294921875 66 1 delete
09:31:01 55.943008 38.066999 2 178.89999389648 4.25 342.03735351562 66 1 delete
09:30:58 55.942882 38.067066 2 179.89999389648 4.4299998283386 333.56689453125 66 1 delete
09:30:55 55.942774 38.067177 2.5 180.69999694824 4.289999961853 326.24450683594 66 1 delete
09:30:52 55.942644 38.067221 3 182.39999389648 3.4800000190735 356.96228027344 66 1 delete
09:30:49 55.942535 38.067222 3 183.69999694824 3.1399998664856 354.36401367188 66 1 delete
09:30:46 55.942448 38.067251 3 185.10000610352 2.8199999332428 331.19934082031 66 1 delete
09:30:43 55.942393 38.067207 4 184.89999389648 2 100.25024414062 66 1 delete
09:30:40 55.942450 38.067023 3 184.30000305176 3.5799999237061 124.71130371094 66 1 delete
09:30:37 55.942482 38.066871 2.5 184.5 3.1499998569489 105.58410644531 66 1 delete
09:30:34 55.942430 38.066708 2 185.10000610352 3.5699999332428 46.966552734375 66 1 delete
09:30:31 55.942355 38.066554 2 185.60000610352 2.75 42.264404296875 66 1 delete
09:30:22 55.942271 38.066444 2 186.10000610352 0.72999995946884 42.610473632812 66 1 delete
09:30:19 55.942189 38.066406 2.5 186.60000610352 3.0999999046326 8.624267578125 66 1 delete
09:30:16 55.942086 38.066402 2 185.89999389648 3.3799998760223 352.69409179688 66 1 delete
09:30:13 55.941974 38.066367 2.5 186.80000305176 3.9700000286102 9.0472412109375 66 1 delete
09:30:10 55.941883 38.066347 2.5 187.39999389648 3.0099999904633 21.07177734375 66 1 delete
09:30:07 55.941821 38.066294 2.5 188.10000610352 3.2300000190735 24.713745117188 66 1 delete
09:30:04 55.941749 38.066241 2.5 188.5 3.2300000190735 8.76708984375 66 1 delete
09:30:01 55.941703 38.066130 2 188.80000305176 4.4299998283386 96.366577148438 66 1 delete
09:29:58 55.941725 38.065878 1.5 189.5 5.4000000953674 108.31420898438 66 1 delete
09:29:55 55.941787 38.065639 2 189 5.460000038147 113.72497558594 66 1 delete
09:29:52 55.941861 38.065389 2 188.69999694824 5.5099997520447 126.00219726562 66 1 delete
09:29:49 55.941960 38.065174 2 190.39999389648 5.4099998474121 139.07592773438 66 1 delete
09:29:46 55.942036 38.064966 2.5 190.5 4.9099998474121 115.59265136719 66 1 delete
09:29:43 55.942062 38.064706 2.5 191.60000610352 4 107.28698730469 66 1 delete
09:29:40 55.942069 38.064532 3 190.5 4.3099999427795 113.05480957031 66 1 delete
09:29:37 55.942127 38.064281 2.5 190 3.7400000095367 120.78369140625 66 1 delete
09:29:34 55.942160 38.064124 2.5 189.5 4.0099997520447 121.27807617188 66 1 delete